CYYL

Details ICAO CYYL (YYL)
Name LYNN LAKE
Region Canada
Timezone America/Winnipeg (UTC-5.0)
Plans Departing 3
Arriving 6
Stats Elevation 1,170 ft / 357 m (AMSL)
Location 56.862446° -101.073052°
Runways 2
Magnetic Variation 5.873° E
Sunrise 2018-05-20 10:18:37 UTC / 2018-05-20 05:18:37 Local
Sunset 2018-05-21 03:05:53 UTC / 2018-05-20 22:05:53 Local
Advertisement - Login to hide

Runways

ID Width Length Bearing (true) Bearing (mag) Surface Threshold Offset Overrun Length
08 80 ft / 24 m 2,512 ft / 766 m 86.81° 80.94° Gravel 0 ft / 0 m 0 ft / 0 m
17 150 ft / 46 m 4,967 ft / 1,514 m 180.00° 174.13° Asphalt 0 ft / 0 m 0 ft / 0 m
26 80 ft / 24 m 2,512 ft / 766 m 266.82° 260.95° Gravel 0 ft / 0 m 0 ft / 0 m
35 150 ft / 46 m 4,967 ft / 1,514 m 0.00° 354.13° Asphalt 0 ft / 0 m 0 ft / 0 m

Map

Weather


0- 5 10 15 20 25 30 35+ Temperature / ° C

Clouds and Precipitation
Forecast for 2018-05-21 00:00 UTC. Updated 2 hours ago

Ground ~20,000 ft ~40,000 ft Winds

METAR

CYYL 210100Z AUTO 09009KT 9SM CLR 18/06 A2988 RMK SLP132 DENSITY ALT 1800FT

TAF

TAF CYYL 210038Z 2101/2113 08008KT P6SM SKC RMK FCST BASED ON AUTO OBS. NXT FCST BY 210700Z

Frequencies

Tower 122.30 MHz MF WINNIPEG RDO
Warning: Do not use this data for real-world aviation or navigation. No guarantee of current accuracy is given.